Terminal Aerodrome Forecast
Issued by NWS Raleigh/Durham, NC

Home | Current Version | Previous Version | Text Only | Print | Product List | Glossary On
Versions: 1 2 3 4 5 6 7 8 9 10 11 12 13 14 15
000
FTUS42 KRAH 250303 AAA
TAFFAY
TAF AMD
KFAY 250303Z 2503/2524 17006KT P6SM SKC
     FM250800 19004KT 3SM BR BKN005
     FM251300 21011KT P6SM FEW012 SCT050
     FM251800 22013G21KT 3SM -SHRA BR FEW030 BKN040
     FM252000 25014G22KT P6SM SCT080 BKN120
     FM252200 27015G26KT P6SM SCT090=

USA.gov is the U.S. government's official web portal to all federal, state and local government web resources and services.